Pike, Arkansas
Current Conditions -  °F | °C
As of 10:56 PM on Friday 28 Nov 2014 (Local Time) from KADF Reporting Station
Overcast Overcast  
Wind Chill: 46°   Ceiling: 4400
Heat Index: 48°   Visibility: 10mi
Dew Point: 42°   Wind: 5mph
Humidity: 80%   Direction: 180°S
Pressure: 30.07"   Gusts: NA
Location:  34.0586°N, 93.5318°W
Report Text: KADF 290456Z AUTO 18004KT 10SM OVC044 09/06 A3007 RMK AO2 T00880055 SLP197
Loading
Personal Weather Stations






























Interactive Weather Map New forecast layout! Learn more

10-Day Weather Forecast

Advertisements
Track Severe Weather on mobile